Latest Weather Observations for Green Cape

IDN60801

Issued at 4:35 pm EDT Sunday 26 October 2014 (issued every 30 minutes, with the page automatically refreshed every 10 minutes)

About weather observations | Map of weather stations | Latest weather observations for NSW | Other Formats
Station Details ID: 069137 Name: GREEN CAPE AWS Lat: -37.26 Lon: 150.05 Height: 19.4 m
Data from the previous 72 hours. | See also: Recent months at Green Cape
Date/Time
EDT
Temp
°C
App
Temp
°C
Dew
Point
Rel
Hum
%
Delta-T
°C
Wind Press
QNH
hPa
Press
MSL
hPa
Rain
since 9 am
mm
Dir
 
Spd
km/h
Gust
km/h
Spd
kts
Gust
kts
26/04:30pm 16.3 12.2 13.8 85 1.4 S 28 33 15 18 1011.4 1011.4 0.4
26/04:00pm 16.4 12.8 14.1 86 1.3 S 26 30 14 16 1011.6 1011.6 0.4
26/03:30pm 16.0 11.5 13.8 87 1.2 SSW 30 35 16 19 1011.7 1011.7 0.4
26/03:00pm 15.8 11.5 14.3 91 0.9 S 30 33 16 18 1011.3 1011.3 0.4
26/02:30pm 15.6 10.3 14.3 92 0.7 S 35 39 19 21 1011.6 1011.6 0.4
26/02:00pm 16.0 11.4 15.0 94 0.6 S 33 39 18 21 1011.7 1011.7 0.4
26/01:30pm 16.2 12.0 15.6 96 0.4 S 32 35 17 19 1011.6 1011.6 0.4
26/01:00pm 16.1 13.0 15.6 97 0.3 S 26 30 14 16 1011.9 1011.9 0.4
26/12:30pm 15.9 12.7 15.4 97 0.3 S 26 30 14 16 1012.0 1012.0 0.4
26/12:00pm 16.0 14.3 15.7 98 0.2 S 19 20 10 11 1012.2 1012.2 0.4
26/11:30am 15.8 14.4 15.5 98 0.2 S 17 19 9 10 1012.4 1012.4 0.4
26/11:00am 16.0 15.0 15.7 98 0.2 S 15 17 8 9 1012.3 1012.3 0.4
26/10:30am 16.0 15.0 15.7 98 0.2 S 15 17 8 9 1012.3 1012.3 0.4
26/10:00am 15.4 13.5 15.1 98 0.2 SSW 19 20 10 11 1012.4 1012.4 0.4
26/09:30am 15.3 13.7 15.0 98 0.2 SSW 17 19 9 10 1012.2 1012.2 0.2
26/09:00am 15.3 13.2 14.8 97 0.3 SSW 19 20 10 11 1012.2 1012.2 3.8
26/08:30am 15.3 14.0 14.8 97 0.3 SSW 15 17 8 9 1012.0 1012.0 3.8
26/08:00am 15.2 14.2 14.7 97 0.3 SSW 13 15 7 8 1011.8 1011.8 3.6
26/07:30am 15.2 14.2 14.7 97 0.3 S 13 15 7 8 1011.7 1011.7 3.4
26/07:00am 15.2 14.2 14.7 97 0.3 S 13 15 7 8 1011.8 1011.8 3.2
26/06:30am 15.7 16.3 15.2 97 0.3 ESE 6 7 3 4 1012.0 1012.0 2.6
26/06:00am 15.7 15.7 15.2 97 0.3 E 9 11 5 6 1011.6 1011.6 2.4
26/05:30am 15.6 15.9 15.1 97 0.3 ENE 7 9 4 5 1011.6 1011.6 2.2
26/05:00am 15.7 16.0 15.1 96 0.3 ENE 7 9 4 5 1011.7 1011.7 2.2
26/04:30am 15.6 15.1 15.0 96 0.3 E 11 13 6 7 1011.7 1011.7 2.0
26/04:00am 15.8 15.4 15.2 96 0.3 ENE 11 15 6 8 1011.8 1011.8 1.8
26/03:30am 15.6 16.4 14.8 95 0.5 E 4 6 2 3 1012.3 1012.3 1.4
26/03:00am 15.5 15.7 14.7 95 0.5 SSE 7 7 4 4 1012.7 1012.7 1.0
26/02:30am 15.4 16.8 14.4 94 0.6 CALM 0 0 0 0 1013.1 1013.1 0.6
26/02:00am 15.3 16.7 14.3 94 0.6 CALM 0 0 0 0 1013.5 1013.5 0.6
26/01:30am 15.2 16.5 14.1 93 0.6 CALM 0 0 0 0 1014.2 1014.2 0.4
26/01:00am 15.3 15.9 14.2 93 0.6 ESE 4 6 2 3 1014.7 1014.7 0.2
26/12:30am 15.3 15.8 14.0 92 0.7 ESE 4 6 2 3 1015.4 1015.4 0.2
26/12:00am 15.4 15.8 13.8 90 0.9 E 4 6 2 3 1015.8 1015.8 0.2
 
Date/Time
EDT
Temp
°C
App
Temp
°C
Dew
Point
Rel
Hum
%
Delta-T
°C
Wind Press
QNH
hPa
Press
MSL
hPa
Rain
since 9 am
mm
Dir
 
Spd
km/h
Gust
km/h
Spd
kts
Gust
kts
25/11:30pm 15.5 15.4 13.9 90 0.9 SE 7 9 4 5 1015.9 1015.9 0.2
25/11:00pm 15.5 15.3 13.7 89 1.0 SE 7 11 4 6 1016.1 1016.1 0.2
25/10:30pm 15.8 15.9 13.8 88 1.1 SE 6 9 3 5 1016.2 1016.2 0.2
25/10:00pm 15.8 15.8 13.6 87 1.2 ESE 6 9 3 5 1016.5 1016.5 0.2
25/09:30pm 16.1 16.1 14.1 88 1.1 ESE 7 9 4 5 1016.5 1016.5 0.2
25/09:00pm 15.9 16.0 13.9 88 1.1 S 6 7 3 4 1016.8 1016.8 0.2
25/08:30pm 15.9 15.8 13.9 88 1.1 S 7 9 4 5 1016.4 1016.4 0.2
25/08:00pm 15.7 15.6 13.9 89 1.0 S 7 9 4 5 1016.4 1016.4 0.2
25/07:30pm 15.8 15.0 14.0 89 1.0 SSW 11 13 6 7 1016.2 1016.2 0.2
25/07:00pm 16.2 14.7 14.2 88 1.1 SSE 15 19 8 10 1015.5 1015.5 0.2
25/06:41pm 16.5 16.4 14.0 85 1.4 ENE 7 22 4 12 1014.4 1014.4 0.2
25/06:30pm 16.2 16.2 13.7 85 1.4 SSW 6 9 3 5 1016.5 1016.5 0.2
25/06:00pm 16.5 16.0 13.8 84 1.5 S 9 11 5 6 1015.7 1015.7 0.2
25/05:30pm 17.3 16.0 13.8 80 2.0 S 13 13 7 7 1015.4 1015.4 0.2
25/05:00pm 17.9 15.9 13.8 77 2.3 S 17 19 9 10 1015.0 1015.0 0.2
25/04:30pm 18.6 16.7 14.3 76 2.5 S 17 19 9 10 1014.8 1014.8 0.2
25/04:00pm 18.8 16.0 14.3 75 2.6 S 22 26 12 14 1015.0 1015.0 0.2
25/03:30pm 19.0 15.8 14.3 74 2.7 S 24 28 13 15 1015.1 1015.1 0.2
25/03:00pm 18.8 14.8 14.1 74 2.7 S 28 30 15 16 1015.3 1015.3 0.2
25/02:30pm 18.4 14.0 14.1 76 2.5 S 30 33 16 18 1015.5 1015.5 0.2
25/02:00pm 18.7 14.0 14.4 76 2.5 S 32 37 17 20 1015.8 1015.8 0.2
25/01:30pm 18.3 13.3 14.0 76 2.5 S 33 41 18 22 1015.7 1015.7 0.2
25/01:00pm 18.7 14.0 14.4 76 2.5 S 32 35 17 19 1015.7 1015.7 0.2
25/12:30pm 18.7 14.1 14.6 77 2.4 S 32 35 17 19 1015.9 1015.9 0.2
25/12:00pm 18.4 13.8 14.5 78 2.3 S 32 35 17 19 1016.1 1016.1 0.2
25/11:30am 18.8 15.0 14.7 77 2.4 S 28 33 15 18 1016.3 1016.3 0.2
25/11:00am 19.2 16.3 15.1 77 2.4 S 24 28 13 15 1016.4 1016.4 0.2
25/10:30am 18.8 16.6 14.9 78 2.3 S 20 24 11 13 1016.6 1016.6 0.0
25/10:00am 18.3 15.9 14.4 78 2.2 S 20 24 11 13 1016.5 1016.5 0.0
25/09:30am 18.0 15.8 14.9 82 1.8 S 20 24 11 13 1016.4 1016.4 0.0
25/09:00am 17.3 14.6 14.6 84 1.6 SSW 22 26 12 14 1016.3 1016.3 0.0
25/08:30am 17.3 14.7 14.8 85 1.4 SSW 22 26 12 14 1016.1 1016.1 0.0
25/08:00am 16.9 14.5 14.5 86 1.4 SSW 20 24 11 13 1016.0 1016.0 0.0
25/07:30am 16.6 12.8 14.6 88 1.1 SSW 28 32 15 17 1015.3 1015.3 0.0
25/07:00am 16.4 11.2 14.4 88 1.1 SSW 35 41 19 22 1014.8 1014.8 0.0
25/06:30am 16.6 14.5 14.8 89 1.0 SSW 19 26 10 14 1014.8 1014.8 0.0
25/06:00am 16.4 15.4 14.6 89 1.0 SW 13 15 7 8 1014.4 1014.4 0.0
25/05:30am 16.3 15.4 14.8 91 0.9 W 13 15 7 8 1014.1 1014.1 0.0
25/05:00am 16.6 15.2 15.5 93 0.6 WSW 17 22 9 12 1013.6 1013.6 0.0
25/04:30am 16.4 15.1 15.9 97 0.3 SW 17 19 9 10 1013.7 1013.7 0.0
25/04:00am 16.2 15.6 15.7 97 0.3 W 13 17 7 9 1013.2 1013.2 0.0
25/03:30am 16.4 18.4 15.9 97 0.3 CALM 0 11 0 6 1013.0 1013.0 0.0
25/03:00am 16.0 17.8 15.5 97 0.3 CALM 0 2 0 1 1013.1 1013.1 0.0
25/02:30am 16.3 18.2 15.8 97 0.3 CALM 0 0 0 0 1012.8 1012.8 0.0
25/02:00am 16.5 18.5 15.9 96 0.4 CALM 0 2 0 1 1012.7 1012.7 0.0
25/01:30am 16.7 18.7 16.1 96 0.4 CALM 0 0 0 0 1012.2 1012.2 0.0
25/01:00am 16.9 18.9 16.1 95 0.5 CALM 0 2 0 1 1012.5 1012.5 0.0
25/12:30am 16.6 18.5 15.8 95 0.5 CALM 0 0 0 0 1012.4 1012.4 0.0
25/12:00am 16.2 18.0 15.4 95 0.5 CALM 0 0 0 0 1012.3 1012.3 0.0
 
Date/Time
EDT
Temp
°C
App
Temp
°C
Dew
Point
Rel
Hum
%
Delta-T
°C
Wind Press
QNH
hPa
Press
MSL
hPa
Rain
since 9 am
mm
Dir
 
Spd
km/h
Gust
km/h
Spd
kts
Gust
kts
24/11:30pm 16.4 18.2 15.6 95 0.5 CALM 0 0 0 0 1012.2 1012.2 0.0
24/11:00pm 16.1 17.8 15.1 94 0.6 CALM 0 0 0 0 1012.3 1012.3 0.0
24/10:30pm 16.4 17.4 15.4 94 0.6 N 4 7 2 4 1012.3 1012.3 0.0
24/10:00pm 16.5 17.0 15.5 94 0.6 N 7 11 4 6 1012.2 1012.2 0.0
24/09:30pm 16.9 16.0 15.9 94 0.6 N 15 17 8 9 1012.1 1012.1 0.0
24/09:00pm 17.2 17.5 16.1 93 0.7 N 9 13 5 7 1012.3 1012.3 0.0
24/08:30pm 17.2 15.4 16.1 93 0.7 N 20 22 11 12 1011.7 1011.7 0.0
24/08:00pm 17.5 15.0 16.2 92 0.8 N 24 26 13 14 1011.2 1011.2 0.0
24/07:30pm 17.7 14.5 16.2 91 0.9 N 28 30 15 16 1011.0 1011.0 0.0
24/07:00pm 18.6 18.9 17.1 91 0.9 N 11 15 6 8 1011.6 1011.6 0.0
24/06:30pm 17.9 16.3 16.4 91 0.9 N 20 22 11 12 1011.2 1011.2 0.0
24/06:00pm 18.4 16.1 16.7 90 1.0 NNE 24 28 13 15 1011.0 1011.0 0.0
24/05:30pm 18.7 17.3 16.9 89 1.1 NNE 20 24 11 13 1011.3 1011.3 0.0
24/05:00pm 19.2 17.4 17.0 87 1.3 N 22 24 12 13 1011.3 1011.3 0.0
24/04:30pm 19.5 17.9 17.5 88 1.2 NNE 22 26 12 14 1011.4 1011.4 0.0
24/04:00pm 19.9 17.6 17.5 86 1.5 NNE 26 30 14 16 1011.5 1011.5 0.0
24/03:30pm 20.4 17.8 17.8 85 1.6 N 28 32 15 17 1011.7 1011.7 0.0
24/03:00pm 20.6 17.7 18.0 85 1.6 NNE 30 32 16 17 1012.0 1012.0 0.0
24/02:30pm 20.1 17.1 17.7 86 1.5 NNE 30 33 16 18 1012.3 1012.3 0.0
24/02:00pm 19.6 16.0 17.2 86 1.5 NNE 32 35 17 19 1012.8 1012.8 0.0
24/01:30pm 20.1 16.9 17.3 84 1.7 NNE 30 35 16 19 1013.2 1013.2 0.0
24/01:00pm 20.1 16.3 17.3 84 1.7 N 33 41 18 22 1013.5 1013.5 0.0
24/12:30pm 19.8 16.0 17.2 85 1.6 NNE 33 39 18 21 1014.1 1014.1 0.0
24/12:00pm 19.9 17.2 17.5 86 1.5 NNE 28 32 15 17 1014.8 1014.8 0.0
24/11:30am 19.4 17.8 17.4 88 1.2 NNE 22 26 12 14 1015.4 1015.4 0.0
24/11:00am 19.4 18.0 17.9 91 0.9 NNE 22 26 12 14 1016.0 1016.0 0.0
24/10:30am 18.8 16.8 17.3 91 0.9 NNE 24 30 13 16 1016.4 1016.4 0.0
24/10:00am 19.0 16.7 17.5 91 0.9 NNE 26 32 14 17 1016.8 1016.8 0.0
24/09:30am 18.3 17.5 17.1 93 0.7 NNE 17 24 9 13 1017.2 1017.2 0.0
24/09:00am 18.2 17.4 17.2 94 0.6 NNE 17 19 9 10 1017.5 1017.5 1.0
24/08:30am 17.7 16.4 16.9 95 0.5 NNE 19 20 10 11 1017.5 1017.5 1.0
24/08:00am 17.4 16.9 16.8 96 0.4 N 15 17 8 9 1017.9 1017.9 1.0
24/07:30am 17.1 16.1 16.5 96 0.4 NNE 17 19 9 10 1017.9 1017.9 1.0
24/07:00am 17.4 15.5 16.8 96 0.4 NNE 22 30 12 16 1017.5 1017.5 1.0
24/06:30am 17.4 16.1 16.8 96 0.4 NNE 19 22 10 12 1017.8 1017.8 1.0
24/06:00am 17.4 18.0 16.8 96 0.4 NNE 9 11 5 6 1018.4 1018.4 1.0
24/05:30am 17.6 14.3 17.0 96 0.4 NNE 30 33 16 18 1017.0 1017.0 0.8
24/05:00am 17.5 12.4 16.9 96 0.4 NNE 39 44 21 24 1016.1 1016.1 0.2
24/04:55am 17.4 13.1 16.8 96 0.4 NNE 35 44 19 24 1016.2 1016.2 0.2
24/04:30am 17.6 15.4 17.0 96 0.4 NE 24 30 13 16 1018.2 1018.2 0.2
24/04:00am 17.4 15.5 16.8 96 0.4 NNE 22 28 12 15 1017.1 1017.1 0.2
24/03:30am 17.4 15.5 16.8 96 0.4 NNE 22 26 12 14 1017.8 1017.8 0.2
24/03:00am 17.4 16.0 16.6 95 0.5 NNE 19 20 10 11 1018.5 1018.5 0.2
24/02:30am 17.4 15.8 16.6 95 0.5 NNE 20 22 11 12 1018.7 1018.7 0.2
24/02:00am 17.5 18.6 16.7 95 0.5 NNE 6 11 3 6 1018.9 1018.9 0.2
24/01:30am 17.3 18.3 16.3 94 0.6 NNE 6 9 3 5 1019.3 1019.3 0.2
24/01:00am 17.1 18.8 16.1 94 0.6 N 2 4 1 2 1019.8 1019.8 0.0
24/12:30am 16.7 18.2 15.7 94 0.6 W 2 4 1 2 1019.9 1019.9 0.0
24/12:00am 16.8 18.7 15.8 94 0.6 CALM 0 4 0 2 1020.2 1020.2 0.0
 
Date/Time
EDT
Temp
°C
App
Temp
°C
Dew
Point
Rel
Hum
%
Delta-T
°C
Wind Press
QNH
hPa
Press
MSL
hPa
Rain
since 9 am
mm
Dir
 
Spd
km/h
Gust
km/h
Spd
kts
Gust
kts
23/11:30pm 16.8 17.6 15.8 94 0.6 W 6 7 3 4 1020.4 1020.4 0.0
23/11:00pm 16.7 17.4 15.7 94 0.6 W 6 6 3 3 1020.2 1020.2 0.0
23/10:30pm 16.8 18.7 15.7 93 0.6 CALM 0 0 0 0 1020.2 1020.2 0.0
23/10:00pm 16.6 18.0 15.5 93 0.6 SE 2 4 1 2 1020.0 1020.0 0.0
23/09:30pm 16.8 17.0 15.7 93 0.6 ESE 9 13 5 7 1020.1 1020.1 0.0
23/09:00pm 16.9 16.4 15.8 93 0.6 SE 13 15 7 8 1019.9 1019.9 0.0
23/08:30pm 16.8 17.0 15.7 93 0.6 SSW 9 11 5 6 1020.3 1020.3 0.0
23/08:00pm 16.9 17.0 15.6 92 0.8 SSW 9 11 5 6 1020.2 1020.2 0.0
23/07:30pm 17.2 17.4 15.7 91 0.9 S 9 11 5 6 1019.3 1019.3 0.0
23/07:00pm 17.2 16.9 15.5 90 1.0 S 11 13 6 7 1019.1 1019.1 0.0
23/06:30pm 17.6 17.4 15.8 89 1.1 S 11 15 6 8 1019.2 1019.2 0.0
23/06:00pm 17.7 16.5 16.0 90 1.0 S 17 19 9 10 1019.1 1019.1 0.0
23/05:30pm 17.5 15.8 15.8 90 1.0 S 19 20 10 11 1019.1 1019.1 0.0
23/05:00pm 17.9 15.6 15.7 87 1.3 S 22 24 12 13 1018.8 1018.8 0.0

Other Formats:

Comma delimited format used in spreadsheet applications
http://www.bom.gov.au/fwo/IDN60801/IDN60801.94934.axf

JavaScript Object Notation format (JSON) in row-major order
http://www.bom.gov.au/fwo/IDN60801/IDN60801.94934.json